createdAt,value
2023-04-18T00:00:57.874Z,70.19
2023-04-18T00:03:24.803Z,70.89
2023-04-18T00:05:51.842Z,70.15
2023-04-18T00:08:18.314Z,70.37
2023-04-18T00:10:44.789Z,70.42
2023-04-18T00:13:12.087Z,70.47
2023-04-18T00:15:38.596Z,70.24
2023-04-18T00:18:06.073Z,70.06
2023-04-18T00:20:32.965Z,69.63
2023-04-18T00:23:00.627Z,69.92
2023-04-18T00:25:27.090Z,69.63
2023-04-18T00:27:53.558Z,69.41
2023-04-18T00:30:20.122Z,69.48
2023-04-18T00:32:46.667Z,70.18
2023-04-18T00:35:13.208Z,70.06
2023-04-18T00:37:39.737Z,70.10
2023-04-18T00:40:06.702Z,69.96
2023-04-18T00:42:33.434Z,69.72
2023-04-18T00:44:59.915Z,69.30
2023-04-18T00:47:26.457Z,69.47
2023-04-18T00:49:53.073Z,69.64
2023-04-18T00:52:19.566Z,69.47
2023-04-18T00:54:46.354Z,69.67
2023-04-18T00:57:13.087Z,69.92
2023-04-18T00:59:39.530Z,70.41
2023-04-18T01:02:06.181Z,70.43
2023-04-18T01:04:32.865Z,71.62
2023-04-18T01:06:59.627Z,71.75
2023-04-18T01:09:26.093Z,72.27
2023-04-18T01:11:52.618Z,72.25
2023-04-18T01:14:19.221Z,72.51
2023-04-18T01:16:46.095Z,72.91
2023-04-18T01:19:13.048Z,73.17
2023-04-18T01:21:43.794Z,73.02
2023-04-18T01:24:12.299Z,73.06
2023-04-18T01:26:39.117Z,73.29
2023-04-18T01:29:05.684Z,73.29
2023-04-18T01:31:36.336Z,73.25
2023-04-18T01:34:03.212Z,73.51
2023-04-18T01:36:29.667Z,73.43
2023-04-18T01:38:56.390Z,73.97
2023-04-18T01:41:22.913Z,73.51
2023-04-18T01:43:49.389Z,73.76
2023-04-18T01:46:16.753Z,73.83
2023-04-18T01:48:43.301Z,74.23
2023-04-18T01:51:09.774Z,74.00
2023-04-18T01:53:36.234Z,73.98
2023-04-18T01:56:02.687Z,74.25
2023-04-18T01:58:29.188Z,74.41
2023-04-18T02:00:57.716Z,74.25
2023-04-18T02:03:24.856Z,74.32
2023-04-18T02:05:51.674Z,74.30
2023-04-18T02:08:18.215Z,74.44
2023-04-18T02:10:44.653Z,74.46
2023-04-18T02:13:11.114Z,73.88
2023-04-18T02:15:37.584Z,73.61
2023-04-18T02:18:04.207Z,72.85
2023-04-18T02:20:31.709Z,72.42
2023-04-18T02:23:00.988Z,72.06
2023-04-18T02:25:28.802Z,72.21
2023-04-18T02:27:55.871Z,71.99
2023-04-18T02:30:22.771Z,71.56
2023-04-18T02:32:53.848Z,71.64
2023-04-18T02:35:20.891Z,71.65
2023-04-18T02:37:47.344Z,71.35
2023-04-18T02:40:13.961Z,71.29
2023-04-18T02:42:40.425Z,71.05
2023-04-18T02:45:07.766Z,71.21
2023-04-18T02:47:43.762Z,71.12
2023-04-18T02:50:18.067Z,71.43
2023-04-18T02:52:44.676Z,71.49
2023-04-18T02:55:11.130Z,71.32
2023-04-18T02:57:37.578Z,71.22
2023-04-18T03:00:06.406Z,71.23
2023-04-18T03:02:33.018Z,71.19
2023-04-18T03:04:59.644Z,71.12
2023-04-18T03:07:26.367Z,70.73
2023-04-18T03:09:52.892Z,70.39
2023-04-18T03:12:19.358Z,70.62
2023-04-18T03:14:45.838Z,70.69
2023-04-18T03:17:12.313Z,70.30
2023-04-18T03:19:38.768Z,70.50
2023-04-18T03:22:05.985Z,70.83
2023-04-18T03:24:32.436Z,70.55
2023-04-18T03:27:00.493Z,70.50
2023-04-18T03:29:26.983Z,70.63
2023-04-18T03:31:53.444Z,71.00
2023-04-18T03:34:19.958Z,71.06
2023-04-18T03:36:47.978Z,70.77
2023-04-18T03:39:14.786Z,71.06
2023-04-18T03:41:41.229Z,70.71
2023-04-18T03:44:07.683Z,70.73
2023-04-18T03:46:34.210Z,70.82
2023-04-18T03:49:00.920Z,70.87
2023-04-18T03:51:27.602Z,70.35
2023-04-18T03:53:54.203Z,69.99
2023-04-18T03:56:20.697Z,70.31
2023-04-18T03:58:47.160Z,70.71
2023-04-18T04:01:13.676Z,70.09
2023-04-18T04:03:40.328Z,70.58
2023-04-18T04:06:06.983Z,69.62
2023-04-18T04:08:33.869Z,69.69
2023-04-18T04:11:00.413Z,69.58
2023-04-18T04:13:26.916Z,69.64
2023-04-18T04:15:53.415Z,68.89
2023-04-18T04:18:20.194Z,68.94
2023-04-18T04:20:47.678Z,68.79
2023-04-18T04:23:14.121Z,68.58
2023-04-18T04:25:40.620Z,68.56
2023-04-18T04:28:08.123Z,68.12
2023-04-18T04:30:34.639Z,68.03
2023-04-18T04:33:01.776Z,68.12
2023-04-18T04:35:28.441Z,67.90
2023-04-18T04:37:54.899Z,67.47
2023-04-18T04:40:22.908Z,67.21
2023-04-18T04:42:53.915Z,66.99
2023-04-18T04:45:20.492Z,67.02
2023-04-18T04:47:47.490Z,67.11
2023-04-18T04:50:15.551Z,66.91
2023-04-18T04:52:42.585Z,66.95
2023-04-18T04:55:09.161Z,66.91
2023-04-18T04:57:35.816Z,67.09
2023-04-18T05:00:02.364Z,66.59
2023-04-18T05:02:29.128Z,66.70
2023-04-18T05:04:55.680Z,67.10
2023-04-18T05:07:22.229Z,67.20
2023-04-18T05:09:49.567Z,66.73
2023-04-18T05:12:16.025Z,65.96
2023-04-18T05:14:42.497Z,66.37
2023-04-18T05:17:09.056Z,66.49
2023-04-18T05:19:35.558Z,65.93
2023-04-18T05:22:02.077Z,65.62
2023-04-18T05:24:28.667Z,65.25
2023-04-18T05:26:56.252Z,65.29
2023-04-18T05:29:22.767Z,65.78
2023-04-18T05:31:49.266Z,65.11
2023-04-18T05:34:15.897Z,65.06
2023-04-18T05:36:42.536Z,65.57
2023-04-18T05:39:09.029Z,64.96
2023-04-18T05:41:35.515Z,65.17
2023-04-18T05:44:05.490Z,64.86
2023-04-18T05:46:32.669Z,64.75
2023-04-18T05:48:59.181Z,64.80
2023-04-18T05:51:26.675Z,64.55
2023-04-18T05:53:53.126Z,65.80
2023-04-18T05:56:19.584Z,66.15
2023-04-18T05:58:47.477Z,66.54
2023-04-18T06:01:18.570Z,66.49
2023-04-18T06:03:45.303Z,65.86
2023-04-18T06:06:11.931Z,65.85
2023-04-18T06:08:39.043Z,65.90
2023-04-18T06:11:05.607Z,65.31
2023-04-18T06:13:32.158Z,64.87
2023-04-18T06:15:58.637Z,64.98
2023-04-18T06:18:25.192Z,65.32
2023-04-18T06:20:51.743Z,65.51
2023-04-18T06:23:18.204Z,65.19
2023-04-18T06:25:44.708Z,64.77
2023-04-18T06:28:11.203Z,64.09
2023-04-18T06:30:37.718Z,64.39
2023-04-18T06:33:04.252Z,63.83
2023-04-18T06:35:31.093Z,63.89
2023-04-18T06:37:57.543Z,64.12
2023-04-18T06:40:24.062Z,63.64
2023-04-18T06:42:50.565Z,61.48
2023-04-18T06:45:17.270Z,61.41
2023-04-18T06:47:43.784Z,60.79
2023-04-18T06:50:10.509Z,60.27
2023-04-18T06:52:40.516Z,61.19
2023-04-18T06:55:09.133Z,60.71
2023-04-18T06:57:35.681Z,59.31
2023-04-18T07:00:02.348Z,58.41
2023-04-18T07:02:28.863Z,58.01
2023-04-18T07:04:55.380Z,57.53
2023-04-18T07:07:21.936Z,57.37
2023-04-18T07:09:49.270Z,57.54
2023-04-18T07:12:16.313Z,57.06
2023-04-18T07:14:42.787Z,56.68
2023-04-18T07:17:09.275Z,55.41
2023-04-18T07:19:35.788Z,54.96
2023-04-18T07:22:02.316Z,55.46
2023-04-18T07:24:29.007Z,54.45
2023-04-18T07:26:55.543Z,52.54
2023-04-18T07:29:22.062Z,52.72
2023-04-18T07:31:48.567Z,52.84
2023-04-18T07:34:15.397Z,53.14
2023-04-18T07:36:42.109Z,52.41
2023-04-18T07:39:08.629Z,52.12
2023-04-18T07:41:35.196Z,51.47
2023-04-18T07:44:02.256Z,51.84
2023-04-18T07:46:28.974Z,50.57
2023-04-18T07:48:55.613Z,50.61
2023-04-18T07:51:22.151Z,50.42
2023-04-18T07:53:48.611Z,50.13
2023-04-18T07:56:15.084Z,49.73
2023-04-18T07:58:41.575Z,49.46
2023-04-18T08:01:08.971Z,49.05
2023-04-18T08:03:37.129Z,49.68
2023-04-18T08:06:05.600Z,49.65
2023-04-18T08:08:32.097Z,49.92
2023-04-18T08:10:58.585Z,48.31
2023-04-18T08:13:25.072Z,48.49
2023-04-18T08:15:51.560Z,46.18
2023-04-18T08:18:18.059Z,44.90
2023-04-18T08:20:44.505Z,44.33
2023-04-18T08:23:13.032Z,43.66
2023-04-18T08:25:39.889Z,43.21
2023-04-18T08:28:06.463Z,43.33
2023-04-18T08:30:33.003Z,43.33
2023-04-18T08:33:00.225Z,44.49
2023-04-18T08:35:26.803Z,42.75
2023-04-18T08:37:53.332Z,43.25
2023-04-18T08:40:19.938Z,42.27
2023-04-18T08:42:46.386Z,41.81
2023-04-18T08:45:14.147Z,41.87
2023-04-18T08:47:41.246Z,41.03
2023-04-18T08:50:09.248Z,42.75
2023-04-18T08:52:36.101Z,41.40
2023-04-18T08:55:02.822Z,41.51
2023-04-18T08:57:30.986Z,41.73
2023-04-18T08:59:57.835Z,40.65
2023-04-18T09:02:43.121Z,40.53
2023-04-18T09:05:19.433Z,40.26
2023-04-18T09:07:49.802Z,39.77
2023-04-18T09:10:33.296Z,39.13
2023-04-18T09:13:00.996Z,40.18
2023-04-18T09:15:28.972Z,38.96
2023-04-18T09:18:00.124Z,39.13
2023-04-18T09:20:37.742Z,37.22
2023-04-18T09:23:23.328Z,37.67
2023-04-18T09:25:50.930Z,36.18
2023-04-18T09:28:29.380Z,35.98
2023-04-18T09:31:16.821Z,35.74
2023-04-18T09:33:56.689Z,36.73
2023-04-18T09:36:24.858Z,37.12
2023-04-18T09:38:54.621Z,36.02
2023-04-18T09:41:23.165Z,36.12
2023-04-18T09:43:49.695Z,36.77
2023-04-18T09:46:17.753Z,37.13
2023-04-18T09:48:44.477Z,36.42
2023-04-18T09:51:14.962Z,35.05
2023-04-18T09:53:44.588Z,35.36
2023-04-18T09:56:23.536Z,35.66
2023-04-18T09:58:50.608Z,35.34
2023-04-18T10:01:17.106Z,34.98
2023-04-18T10:03:47.491Z,34.55
2023-04-18T10:06:16.113Z,33.03
2023-04-18T10:08:44.326Z,33.29
2023-04-18T10:11:10.787Z,32.34
2023-04-18T10:13:38.370Z,32.95
2023-04-18T10:16:05.263Z,33.51
2023-04-18T10:18:31.852Z,34.87
2023-04-18T10:21:03.244Z,34.34
2023-04-18T10:23:34.647Z,34.51
2023-04-18T10:26:07.673Z,31.45
2023-04-18T10:28:53.289Z,28.90
2023-04-18T10:31:24.228Z,26.02
2023-04-18T10:36:28.040Z,22.97
2023-04-18T10:38:56.259Z,21.91
2023-04-18T10:41:33.209Z,21.14
2023-04-18T10:44:09.138Z,21.58
2023-04-18T10:46:42.957Z,20.85
2023-04-18T10:49:23.362Z,19.86
2023-04-18T10:51:55.955Z,19.16
2023-04-18T10:54:30.946Z,18.14
2023-04-18T10:56:58.701Z,17.72
2023-04-18T10:59:26.698Z,16.73
2023-04-18T11:02:01.339Z,15.27
2023-04-18T11:04:28.268Z,15.03
2023-04-18T11:06:55.923Z,15.92
2023-04-18T11:09:22.599Z,16.20
2023-04-18T11:12:06.261Z,15.05
2023-04-18T11:14:42.817Z,15.08
2023-04-18T11:17:25.554Z,13.78
2023-04-18T11:20:12.850Z,13.08
2023-04-18T11:22:49.775Z,12.49
2023-04-18T11:25:16.861Z,12.36
2023-04-18T11:27:47.953Z,12.33
2023-04-18T11:30:14.879Z,12.09
2023-04-18T11:32:41.524Z,11.77
2023-04-18T11:35:12.030Z,11.79
2023-04-18T11:37:38.848Z,11.91
2023-04-18T11:40:08.591Z,11.71
2023-04-18T11:42:35.379Z,11.07
2023-04-18T11:45:02.276Z,10.71
2023-04-18T11:47:29.964Z,11.03
2023-04-18T11:50:03.640Z,10.79
2023-04-18T11:52:31.012Z,9.74
2023-04-18T11:55:21.650Z,10.20
2023-04-18T11:57:57.758Z,10.43
2023-04-18T12:00:35.072Z,9.63
2023-04-18T12:03:04.122Z,9.59
2023-04-18T12:05:32.513Z,10.72
2023-04-18T12:08:26.682Z,10.96
2023-04-18T12:10:53.787Z,10.31
2023-04-18T12:13:27.367Z,9.99
2023-04-18T12:15:54.468Z,10.80
2023-04-18T12:18:21.456Z,12.23
2023-04-18T12:20:54.328Z,11.90
2023-04-18T12:23:35.356Z,10.61
2023-04-18T12:26:06.136Z,10.67
2023-04-18T12:28:33.441Z,10.28
2023-04-18T12:31:00.105Z,9.61
2023-04-18T12:33:26.824Z,9.83
2023-04-18T12:35:53.420Z,9.52
2023-04-18T12:38:21.759Z,10.29
2023-04-18T12:40:48.259Z,9.81
2023-04-18T12:43:14.795Z,9.26
2023-04-18T12:45:41.293Z,9.84
2023-04-18T12:48:07.786Z,9.06
2023-04-18T12:50:34.332Z,9.40
2023-04-18T12:53:01.272Z,10.49
2023-04-18T12:55:28.275Z,10.66
2023-04-18T12:57:54.817Z,10.33
2023-04-18T13:00:28.726Z,9.87
2023-04-18T13:02:55.396Z,9.37
2023-04-18T13:05:23.213Z,8.77
2023-04-18T13:07:50.405Z,8.75
2023-04-18T13:10:18.091Z,8.35
2023-04-18T13:12:44.798Z,8.12
2023-04-18T13:15:11.527Z,8.12
2023-04-18T13:17:38.764Z,8.67
2023-04-18T13:20:15.405Z,8.45
2023-04-18T13:22:42.501Z,7.58
2023-04-18T13:25:10.666Z,7.74
2023-04-18T13:27:40.179Z,7.68
2023-04-18T13:30:11.019Z,7.82
2023-04-18T13:32:39.022Z,7.90
2023-04-18T13:35:08.170Z,7.53
2023-04-18T13:37:34.693Z,7.59
2023-04-18T13:40:01.225Z,7.90
2023-04-18T13:42:27.719Z,7.96
2023-04-18T13:44:54.403Z,7.53
2023-04-18T13:47:20.968Z,7.98
2023-04-18T13:49:47.554Z,7.58
2023-04-18T13:52:14.099Z,7.99
2023-04-18T13:54:41.291Z,7.68
2023-04-18T13:57:11.513Z,7.75
2023-04-18T13:59:41.813Z,8.43
2023-04-18T14:02:09.217Z,8.02
2023-04-18T14:04:36.295Z,7.96
2023-04-18T14:07:03.297Z,8.54
2023-04-18T14:09:29.751Z,9.33
2023-04-18T14:11:58.087Z,8.27
2023-04-18T14:14:24.665Z,8.12
2023-04-18T14:16:51.219Z,8.03
2023-04-18T14:19:17.868Z,8.28
2023-04-18T14:21:44.320Z,7.91
2023-04-18T14:24:11.779Z,7.97
2023-04-18T14:26:38.282Z,7.96
2023-04-18T14:29:05.098Z,7.82
2023-04-18T14:31:31.634Z,7.96
2023-04-18T14:33:58.157Z,8.27
2023-04-18T14:36:24.649Z,8.38
2023-04-18T14:38:51.153Z,9.05
2023-04-18T14:41:17.703Z,9.03
2023-04-18T14:43:44.212Z,9.24
2023-04-18T14:46:12.398Z,9.46
2023-04-18T14:48:38.912Z,9.52
2023-04-18T14:51:05.657Z,10.00
2023-04-18T14:53:32.162Z,11.18
2023-04-18T14:55:59.861Z,11.73
2023-04-18T14:58:26.314Z,11.74
2023-04-18T15:00:52.795Z,12.86
2023-04-18T15:03:19.374Z,12.00
2023-04-18T15:05:49.114Z,12.01
2023-04-18T15:08:16.107Z,14.23
2023-04-18T15:10:42.697Z,15.88
2023-04-18T15:13:09.691Z,15.04
2023-04-18T15:15:37.664Z,13.09
2023-04-18T15:18:04.356Z,13.23
2023-04-18T15:20:31.070Z,12.48
2023-04-18T15:22:57.597Z,13.15
2023-04-18T15:25:25.950Z,14.66
2023-04-18T15:27:52.537Z,16.79
2023-04-18T15:30:19.126Z,19.31
2023-04-18T15:32:45.676Z,21.82
2023-04-18T15:35:12.734Z,23.46
2023-04-18T15:37:39.265Z,25.40
2023-04-18T15:40:09.138Z,26.92
2023-04-18T15:42:35.833Z,28.32
2023-04-18T15:45:03.607Z,28.23
2023-04-18T15:47:31.150Z,27.03
2023-04-18T15:49:57.690Z,26.30
2023-04-18T15:52:24.179Z,26.55
2023-04-18T15:54:51.786Z,26.58
2023-04-18T15:57:18.279Z,25.41
2023-04-18T15:59:44.814Z,26.26
2023-04-18T16:02:11.343Z,26.79
2023-04-18T16:04:37.887Z,24.00
2023-04-18T16:07:04.871Z,21.48
2023-04-18T16:09:31.606Z,20.28
2023-04-18T16:11:58.059Z,20.30
2023-04-18T16:14:24.616Z,19.32
2023-04-18T16:16:52.641Z,20.48
2023-04-18T16:19:21.576Z,23.32
2023-04-18T16:21:49.007Z,24.79
2023-04-18T16:24:16.139Z,27.42
2023-04-18T16:26:42.717Z,29.07
2023-04-18T16:29:09.202Z,30.77
2023-04-18T16:31:35.686Z,32.67
2023-04-18T16:34:03.181Z,34.35
2023-04-18T16:36:29.672Z,35.99
2023-04-18T16:38:56.309Z,36.61
2023-04-18T16:41:22.766Z,37.75
2023-04-18T16:43:49.224Z,38.74
2023-04-18T16:46:15.804Z,39.78
2023-04-18T16:48:42.377Z,40.55
2023-04-18T16:51:08.855Z,41.02
2023-04-18T16:53:36.043Z,41.28
2023-04-18T16:56:03.192Z,41.13
2023-04-18T16:58:29.752Z,41.25
2023-04-18T17:00:56.241Z,41.69
2023-04-18T17:03:22.850Z,42.12
2023-04-18T17:05:49.435Z,43.39
2023-04-18T17:08:16.404Z,43.70
2023-04-18T17:10:42.935Z,43.25
2023-04-18T17:13:09.394Z,43.05
2023-04-18T17:15:36.472Z,43.12
2023-04-18T17:18:03.005Z,43.73
2023-04-18T17:20:29.541Z,43.73
2023-04-18T17:22:57.194Z,43.59
2023-04-18T17:25:23.653Z,43.41
2023-04-18T17:27:50.155Z,44.21
2023-04-18T17:30:16.673Z,44.56
2023-04-18T17:32:45.853Z,45.16
2023-04-18T17:35:14.497Z,45.66
2023-04-18T17:37:42.389Z,45.67
2023-04-18T17:40:09.905Z,46.22
2023-04-18T17:42:36.870Z,46.84
2023-04-18T17:45:04.788Z,46.98
2023-04-18T17:47:33.394Z,46.50
2023-04-18T17:50:09.142Z,47.44
2023-04-18T17:52:35.698Z,47.69
2023-04-18T17:55:02.220Z,47.97
2023-04-18T17:57:30.392Z,47.58
2023-04-18T17:59:56.967Z,48.32
2023-04-18T18:02:23.697Z,49.18
2023-04-18T18:04:51.378Z,49.75
2023-04-18T18:07:18.330Z,50.72
2023-04-18T18:09:45.512Z,50.68
2023-04-18T18:12:12.175Z,51.22
2023-04-18T18:14:40.440Z,50.90
2023-04-18T18:17:06.992Z,51.62
2023-04-18T18:19:35.925Z,52.00
2023-04-18T18:22:02.409Z,52.03
2023-04-18T18:24:29.037Z,52.81
2023-04-18T18:26:56.285Z,53.19
2023-04-18T18:29:22.832Z,53.67
2023-04-18T18:31:49.433Z,53.74
2023-04-18T18:34:16.833Z,53.60
2023-04-18T18:36:43.278Z,53.83
2023-04-18T18:39:11.060Z,53.98
2023-04-18T18:41:37.598Z,54.27
2023-04-18T18:44:04.126Z,54.17
2023-04-18T18:46:30.941Z,53.71
2023-04-18T18:48:57.557Z,54.04
2023-04-18T18:51:24.049Z,54.17
2023-04-18T18:53:50.540Z,54.25
2023-04-18T18:56:17.017Z,54.46
2023-04-18T18:58:43.786Z,54.65
2023-04-18T19:01:11.446Z,54.72
2023-04-18T19:03:38.106Z,54.88
2023-04-18T19:06:06.924Z,54.82
2023-04-18T19:08:33.821Z,55.08
2023-04-18T19:11:00.381Z,55.06
2023-04-18T19:13:26.898Z,54.85
2023-04-18T19:15:53.462Z,55.29
2023-04-18T19:18:20.236Z,55.31
2023-04-18T19:20:46.752Z,55.38
2023-04-18T19:23:13.261Z,55.20
2023-04-18T19:25:39.835Z,55.58
2023-04-18T19:28:06.603Z,56.22
2023-04-18T19:30:33.060Z,55.95
2023-04-18T19:32:59.877Z,55.86
2023-04-18T19:35:26.400Z,55.94
2023-04-18T19:37:55.802Z,56.28
2023-04-18T19:40:23.650Z,56.35
2023-04-18T19:42:50.145Z,56.05
2023-04-18T19:45:16.644Z,56.21
2023-04-18T19:47:44.250Z,56.20
2023-04-18T19:50:11.417Z,56.28
2023-04-18T19:52:38.048Z,56.82
2023-04-18T19:55:04.729Z,56.96
2023-04-18T19:57:31.237Z,56.46
2023-04-18T19:59:57.714Z,56.54
2023-04-18T20:02:24.360Z,56.90
2023-04-18T20:04:51.215Z,57.25
2023-04-18T20:07:17.891Z,57.17
2023-04-18T20:09:44.379Z,57.42
2023-04-18T20:12:10.930Z,57.04
2023-04-18T20:14:37.410Z,57.71
2023-04-18T20:17:03.901Z,58.08
2023-04-18T20:19:30.671Z,58.67
2023-04-18T20:21:57.236Z,59.26
2023-04-18T20:24:23.827Z,59.42
2023-04-18T20:26:51.338Z,60.04
2023-04-18T20:29:17.904Z,60.57
2023-04-18T20:31:44.429Z,61.04
2023-04-18T20:34:10.965Z,61.53
2023-04-18T20:36:41.448Z,61.98
2023-04-18T20:39:08.872Z,61.96
2023-04-18T20:41:36.790Z,62.29
2023-04-18T20:44:05.162Z,62.46
2023-04-18T20:46:32.404Z,62.83
2023-04-18T20:48:59.122Z,62.97
2023-04-18T20:51:26.729Z,63.11
2023-04-18T20:53:53.260Z,63.31
2023-04-18T20:56:20.090Z,63.16
2023-04-18T20:58:46.644Z,63.12
2023-04-18T21:01:13.137Z,63.27
2023-04-18T21:03:39.756Z,63.75
2023-04-18T21:06:06.309Z,63.42
2023-04-18T21:08:35.001Z,63.66
2023-04-18T21:11:01.531Z,63.69
2023-04-18T21:13:28.002Z,63.74
2023-04-18T21:15:57.036Z,63.78
2023-04-18T21:18:23.871Z,64.12
2023-04-18T21:20:50.443Z,64.44
2023-04-18T21:23:16.949Z,64.61
2023-04-18T21:25:43.411Z,64.49
2023-04-18T21:28:09.878Z,64.49
2023-04-18T21:30:36.443Z,64.42
2023-04-18T21:33:03.224Z,64.86
2023-04-18T21:35:29.991Z,64.80
2023-04-18T21:37:56.785Z,65.33
2023-04-18T21:40:24.257Z,65.07
2023-04-18T21:42:53.507Z,65.47
2023-04-18T21:45:20.058Z,65.65
2023-04-18T21:47:46.812Z,65.65
2023-04-18T21:50:13.366Z,65.35
2023-04-18T21:52:39.834Z,65.68
2023-04-18T21:55:06.461Z,65.67
2023-04-18T21:57:32.907Z,65.69
2023-04-18T21:59:59.383Z,66.27
2023-04-18T22:02:26.811Z,66.52
2023-04-18T22:04:53.356Z,66.74
2023-04-18T22:07:19.876Z,66.91
2023-04-18T22:09:46.560Z,66.79
2023-04-18T22:12:14.297Z,66.71
2023-04-18T22:14:41.923Z,67.14
2023-04-18T22:17:09.210Z,67.31
2023-04-18T22:19:35.689Z,66.98
2023-04-18T22:22:02.169Z,67.32
2023-04-18T22:24:28.681Z,67.54
2023-04-18T22:26:55.266Z,67.30
2023-04-18T22:29:21.734Z,67.47
2023-04-18T22:31:48.237Z,67.63
2023-04-18T22:34:14.985Z,67.34
2023-04-18T22:36:42.746Z,67.50
2023-04-18T22:39:09.602Z,67.45
2023-04-18T22:41:36.083Z,67.42
2023-04-18T22:44:03.183Z,67.19
2023-04-18T22:46:29.733Z,67.58
2023-04-18T22:48:56.900Z,67.36
2023-04-18T22:51:23.517Z,67.77
2023-04-18T22:53:50.034Z,68.21
2023-04-18T22:56:16.493Z,68.26
2023-04-18T22:58:42.959Z,68.19
2023-04-18T23:01:09.494Z,68.22
2023-04-18T23:03:36.126Z,68.41
2023-04-18T23:06:02.666Z,68.26
2023-04-18T23:08:29.212Z,68.40
2023-04-18T23:10:55.791Z,68.56
2023-04-18T23:13:22.824Z,68.86
2023-04-18T23:15:49.335Z,68.58
2023-04-18T23:18:16.038Z,68.47
2023-04-18T23:20:42.520Z,68.71
2023-04-18T23:23:09.044Z,69.07
2023-04-18T23:25:35.658Z,68.68
2023-04-18T23:28:02.118Z,68.86
2023-04-18T23:30:28.567Z,69.00
2023-04-18T23:32:55.180Z,68.45
2023-04-18T23:35:21.697Z,68.63
2023-04-18T23:37:48.170Z,68.94
2023-04-18T23:40:14.914Z,69.14
2023-04-18T23:42:42.032Z,69.20
2023-04-18T23:45:08.622Z,68.81
2023-04-18T23:47:35.305Z,68.95
2023-04-18T23:50:01.922Z,68.94
2023-04-18T23:52:28.383Z,69.14
2023-04-18T23:54:55.431Z,68.73
2023-04-18T23:57:21.896Z,69.02
2023-04-18T23:59:48.797Z,69.15
